Ida — C4CZ2 — position and weather

sailwx.info

Track history (hours):
 
Tides and Currents Weather Stations Pressure Air Temp Water Temp Dewpoint Dewpoint Depression Visibility Wind Speed Wind Dir Waves Ship Positions

Ida

Last reported at 2015-Jul-29 17:13 UTC. Time now 2015-Jul-30 20:19 UTC.
Position N 54°52' E 015°09'.

Length 82 m; draft 3 m.

Type: Cargo ship. MMSI: 210319000.

Date/timePositionNaut miles runAvg speedWind from/ knotsBaromVisibWave heightAir tempDewpointWater temp
2015-Jul-29 17:13N 54°52' E 015°09'6 7.7
2015-Jul-29 16:29N 54°57' E 015°14'7 8.0
2015-Jul-29 15:33N 55°02' E 015°24'8 8.1
2015-Jul-29 14:32N 55°08' E 015°34'  
2015-Jul-21 04:28N 55°50' E 019°20'8 8.8
2015-Jul-21 03:33N 55°42' E 019°19'30 8.7
2015-Jul-21 00:08N 55°12' E 019°12'5 8.7
2015-Jul-20 23:33N 55°07' E 019°11'9 8.6
2015-Jul-20 22:32N 54°58' E 019°09'8 8.5
2015-Jul-20 21:33N 54°50' E 019°08'9 8.5
2015-Jul-20 20:34N 54°42' E 019°06'8 8.1
2015-Jul-20 19:33N 54°34' E 019°05'9 8.7
2015-Jul-20 18:33N 54°26' E 018°58'9 8.9
2015-Jul-20 17:33N 54°24' E 018°43'0 0.3
2015-Jul-20 16:31N 54°23' E 018°43'0 0.0
2015-Jul-20 15:31N 54°23' E 018°43'0 0.0
2015-Jul-20 14:32N 54°23' E 018°43'0 0.0
2015-Jul-20 13:31N 54°23' E 018°43'0 0.0
2015-Jul-20 12:32N 54°23' E 018°43'0 0.0
2015-Jul-20 11:31N 54°23' E 018°43'0 0.0
2015-Jul-20 10:31N 54°23' E 018°43'0 0.0
2015-Jul-20 09:32N 54°23' E 018°43'0 0.0
2015-Jul-20 08:31N 54°23' E 018°43'0 0.0
2015-Jul-20 07:31N 54°23' E 018°43'0 0.0
2015-Jul-20 06:31N 54°23' E 018°43'0 0.0
2015-Jul-20 05:32N 54°23' E 018°43'2 2.2
2015-Jul-20 04:34N 54°24' E 018°46'2 2.3
2015-Jul-20 03:31N 54°26' E 018°49'0 0.0
2015-Jul-20 02:31N 54°26' E 018°49'0 0.0
2015-Jul-20 01:31N 54°26' E 018°49'0 0.1
2015-Jul-20 00:31N 54°26' E 018°49'0 0.0
2015-Jul-19 23:31N 54°26' E 018°49'0 0.0
2015-Jul-19 22:31N 54°26' E 018°49'0 0.0
2015-Jul-19 21:31N 54°26' E 018°49'0 0.0
2015-Jul-19 20:31N 54°26' E 018°49'2 2.5
2015-Jul-19 19:33N 54°27' E 018°53'8 8.4
2015-Jul-19 18:34N 54°34' E 019°01'7 7.5
2015-Jul-19 17:34N 54°41' E 018°60'  
Track history (hours):
 
Tides and Currents Weather Stations Pressure Air Temp Water Temp Dewpoint Dewpoint Depression Visibility Wind Speed Wind Dir Waves Ship Positions

Ida

Last reported at 2015-Jul-29 17:13 UTC. Time now 2015-Jul-30 20:19 UTC.
Position N 54°52' E 015°09'.

Length 82 m; draft 3 m.

Type: Cargo ship. MMSI: 210319000.

Date/timePositionNaut miles runAvg speedWind from/ knotsBaromVisibWave heightAir tempDewpointWater temp
2015-Jul-29 17:13N 54°52' E 015°09'6 7.7
2015-Jul-29 16:29N 54°57' E 015°14'7 8.0
2015-Jul-29 15:33N 55°02' E 015°24'8 8.1
2015-Jul-29 14:32N 55°08' E 015°34'  
2015-Jul-21 04:28N 55°50' E 019°20'8 8.8
2015-Jul-21 03:33N 55°42' E 019°19'30 8.7
2015-Jul-21 00:08N 55°12' E 019°12'5 8.7
2015-Jul-20 23:33N 55°07' E 019°11'9 8.6
2015-Jul-20 22:32N 54°58' E 019°09'8 8.5
2015-Jul-20 21:33N 54°50' E 019°08'9 8.5
2015-Jul-20 20:34N 54°42' E 019°06'8 8.1
2015-Jul-20 19:33N 54°34' E 019°05'9 8.7
2015-Jul-20 18:33N 54°26' E 018°58'9 8.9
2015-Jul-20 17:33N 54°24' E 018°43'0 0.3
2015-Jul-20 16:31N 54°23' E 018°43'0 0.0
2015-Jul-20 15:31N 54°23' E 018°43'0 0.0
2015-Jul-20 14:32N 54°23' E 018°43'0 0.0
2015-Jul-20 13:31N 54°23' E 018°43'0 0.0
2015-Jul-20 12:32N 54°23' E 018°43'0 0.0
2015-Jul-20 11:31N 54°23' E 018°43'0 0.0
2015-Jul-20 10:31N 54°23' E 018°43'0 0.0
2015-Jul-20 09:32N 54°23' E 018°43'0 0.0
2015-Jul-20 08:31N 54°23' E 018°43'0 0.0
2015-Jul-20 07:31N 54°23' E 018°43'0 0.0
2015-Jul-20 06:31N 54°23' E 018°43'0 0.0
2015-Jul-20 05:32N 54°23' E 018°43'2 2.2
2015-Jul-20 04:34N 54°24' E 018°46'2 2.3
2015-Jul-20 03:31N 54°26' E 018°49'0 0.0
2015-Jul-20 02:31N 54°26' E 018°49'0 0.0
2015-Jul-20 01:31N 54°26' E 018°49'0 0.1
2015-Jul-20 00:31N 54°26' E 018°49'0 0.0
2015-Jul-19 23:31N 54°26' E 018°49'0 0.0
2015-Jul-19 22:31N 54°26' E 018°49'0 0.0
2015-Jul-19 21:31N 54°26' E 018°49'0 0.0
2015-Jul-19 20:31N 54°26' E 018°49'2 2.5
2015-Jul-19 19:33N 54°27' E 018°53'8 8.4
2015-Jul-19 18:34N 54°34' E 019°01'7 7.5
2015-Jul-19 17:34N 54°41' E 018°60'  

Dump ship's entire track history